createdAt,value
2023-09-21T00:01:13.630Z,1.13
2023-09-21T00:03:41.864Z,1.40
2023-09-21T00:06:09.711Z,1.05
2023-09-21T00:08:37.781Z,1.85
2023-09-21T00:11:08.608Z,1.40
2023-09-21T00:13:40.381Z,1.00
2023-09-21T00:16:12.900Z,1.33
2023-09-21T00:18:44.578Z,1.00
2023-09-21T00:21:13.901Z,1.25
2023-09-21T00:23:42.485Z,1.30
2023-09-21T00:26:11.193Z,1.30
2023-09-21T00:28:40.748Z,1.10
2023-09-21T00:31:08.070Z,1.92
2023-09-21T00:33:35.897Z,1.40
2023-09-21T00:36:06.797Z,1.20
2023-09-21T00:38:34.988Z,1.48
2023-09-21T00:41:05.488Z,1.27
2023-09-21T00:43:33.909Z,1.52
2023-09-21T00:46:04.766Z,1.30
2023-09-21T00:48:37.568Z,1.40
2023-09-21T00:51:08.826Z,1.30
2023-09-21T00:53:37.611Z,1.35
2023-09-21T00:56:13.046Z,1.40
2023-09-21T00:58:47.273Z,1.05
2023-09-21T01:01:25.543Z,1.00
2023-09-21T01:03:56.961Z,1.10
2023-09-21T01:06:25.001Z,1.00
2023-09-21T01:08:53.180Z,1.17
2023-09-21T01:11:21.908Z,1.15
2023-09-21T01:13:49.738Z,1.20
2023-09-21T01:16:18.404Z,1.13
2023-09-21T01:18:48.593Z,1.27
2023-09-21T01:21:18.612Z,1.15
2023-09-21T01:23:47.818Z,1.73
2023-09-21T01:26:16.214Z,1.08
2023-09-21T01:28:46.378Z,1.05
2023-09-21T01:31:14.486Z,1.30
2023-09-21T01:33:45.434Z,1.35
2023-09-21T01:36:13.905Z,0.88
2023-09-21T01:41:17.012Z,0.98
2023-09-21T01:43:45.468Z,1.25
2023-09-21T01:46:22.902Z,1.05
2023-09-21T01:48:53.538Z,1.05
2023-09-21T01:51:22.042Z,1.30
2023-09-21T01:53:49.737Z,1.23
2023-09-21T01:56:17.679Z,1.00
2023-09-21T01:58:45.754Z,1.70
2023-09-21T02:01:18.141Z,0.90
2023-09-21T02:03:46.056Z,1.20
2023-09-21T02:06:14.168Z,1.55
2023-09-21T02:08:41.864Z,1.30
2023-09-21T02:11:09.500Z,1.10
2023-09-21T02:13:36.836Z,1.20
2023-09-21T02:16:04.427Z,1.23
2023-09-21T02:18:32.305Z,1.00
2023-09-21T02:21:02.245Z,1.13
2023-09-21T02:23:30.587Z,1.30
2023-09-21T02:25:58.140Z,1.30
2023-09-21T02:28:25.541Z,1.20
2023-09-21T02:30:52.981Z,1.30
2023-09-21T02:33:23.726Z,1.10
2023-09-21T02:35:51.806Z,1.10
2023-09-21T02:38:21.595Z,1.20
2023-09-21T02:40:49.506Z,1.00
2023-09-21T02:43:18.111Z,1.20
2023-09-21T02:45:46.533Z,0.90
2023-09-21T02:48:17.149Z,1.60
2023-09-21T02:50:51.528Z,1.30
2023-09-21T02:53:21.520Z,0.90
2023-09-21T02:55:51.761Z,1.70
2023-09-21T02:58:21.061Z,1.40
2023-09-21T03:00:51.449Z,1.35
2023-09-21T03:03:23.564Z,0.90
2023-09-21T03:05:53.504Z,0.98
2023-09-21T03:08:23.102Z,1.45
2023-09-21T03:10:55.016Z,1.30
2023-09-21T03:13:22.955Z,1.10
2023-09-21T03:16:02.344Z,1.27
2023-09-21T03:18:31.403Z,1.30
2023-09-21T03:20:58.834Z,1.55
2023-09-21T03:23:28.864Z,1.52
2023-09-21T03:25:56.180Z,1.60
2023-09-21T03:28:27.235Z,1.30
2023-09-21T03:30:58.189Z,1.10
2023-09-21T03:33:26.015Z,1.40
2023-09-21T03:35:53.693Z,1.40
2023-09-21T03:38:25.173Z,1.40
2023-09-21T03:40:57.781Z,1.60
2023-09-21T03:43:25.156Z,1.25
2023-09-21T03:45:52.702Z,1.25
2023-09-21T03:48:20.121Z,1.33
2023-09-21T03:50:50.565Z,1.80
2023-09-21T03:55:47.315Z,1.23
2023-09-21T03:58:15.872Z,1.90
2023-09-21T04:00:43.327Z,1.92
2023-09-21T04:03:12.407Z,1.55
2023-09-21T04:05:50.194Z,1.25
2023-09-21T04:08:17.495Z,1.88
2023-09-21T04:10:44.782Z,1.38
2023-09-21T04:13:12.203Z,1.50
2023-09-21T04:15:39.556Z,1.45
2023-09-21T04:18:10.410Z,1.35
2023-09-21T04:20:41.267Z,1.45
2023-09-21T04:23:08.971Z,2.03
2023-09-21T04:25:37.838Z,1.48
2023-09-21T04:28:06.915Z,1.20
2023-09-21T04:30:36.034Z,1.40
2023-09-21T04:33:04.016Z,1.60
2023-09-21T04:35:31.812Z,1.70
2023-09-21T04:37:59.944Z,1.70
2023-09-21T04:40:28.707Z,1.50
2023-09-21T04:42:58.193Z,1.88
2023-09-21T04:45:28.145Z,1.77
2023-09-21T04:48:02.634Z,1.40
2023-09-21T04:50:34.401Z,1.50
2023-09-21T04:53:02.287Z,1.40
2023-09-21T04:55:29.921Z,1.17
2023-09-21T04:57:57.319Z,1.27
2023-09-21T05:00:25.025Z,1.58
2023-09-21T05:02:52.626Z,2.03
2023-09-21T05:05:22.980Z,1.17
2023-09-21T05:07:50.462Z,1.83
2023-09-21T05:10:17.978Z,1.70
2023-09-21T05:12:47.837Z,1.60
2023-09-21T05:15:16.973Z,1.83
2023-09-21T05:17:44.584Z,1.92
2023-09-21T05:20:12.342Z,1.65
2023-09-21T05:22:43.761Z,2.17
2023-09-21T05:25:11.745Z,1.70
2023-09-21T05:27:40.071Z,1.75
2023-09-21T05:30:10.844Z,1.67
2023-09-21T05:32:39.866Z,2.10
2023-09-21T05:37:37.383Z,1.70
2023-09-21T05:40:07.249Z,1.80
2023-09-21T05:42:35.327Z,1.80
2023-09-21T05:45:03.489Z,1.63
2023-09-21T05:47:31.014Z,2.00
2023-09-21T05:49:58.461Z,1.90
2023-09-21T05:52:26.818Z,2.10
2023-09-21T05:54:54.306Z,2.00
2023-09-21T05:57:22.774Z,2.08
2023-09-21T06:02:18.894Z,2.03
2023-09-21T06:04:47.940Z,1.88
2023-09-21T06:07:18.191Z,1.98
2023-09-21T06:09:45.544Z,1.75
2023-09-21T06:12:12.988Z,2.28
2023-09-21T06:14:40.360Z,1.80
2023-09-21T06:17:11.356Z,1.88
2023-09-21T06:19:40.854Z,1.77
2023-09-21T06:22:08.198Z,1.95
2023-09-21T06:24:35.498Z,2.10
2023-09-21T06:27:02.902Z,2.05
2023-09-21T06:29:30.251Z,2.20
2023-09-21T06:32:12.854Z,2.20
2023-09-21T06:34:44.850Z,1.85
2023-09-21T06:37:13.612Z,2.20
2023-09-21T06:39:41.699Z,1.77
2023-09-21T06:42:09.291Z,2.00
2023-09-21T06:44:38.089Z,2.30
2023-09-21T06:49:35.623Z,2.10
2023-09-21T06:52:04.786Z,2.22
2023-09-21T06:54:32.790Z,2.00
2023-09-21T06:57:05.377Z,2.50
2023-09-21T06:59:39.438Z,1.95
2023-09-21T07:02:07.226Z,1.85
2023-09-21T07:04:36.003Z,1.83
2023-09-21T07:07:07.889Z,2.45
2023-09-21T07:09:38.907Z,2.20
2023-09-21T07:12:07.289Z,1.65
2023-09-21T07:14:37.347Z,1.98
2023-09-21T07:17:06.619Z,2.15
2023-09-21T07:19:36.254Z,2.25
2023-09-21T07:22:04.729Z,1.70
2023-09-21T07:24:32.676Z,1.80
2023-09-21T07:27:02.366Z,2.00
2023-09-21T07:29:32.008Z,1.75
2023-09-21T07:32:00.616Z,1.65
2023-09-21T07:34:30.850Z,2.00
2023-09-21T07:36:58.756Z,2.20
2023-09-21T07:39:26.172Z,1.75
2023-09-21T07:41:55.020Z,1.67
2023-09-21T07:44:24.164Z,1.83
2023-09-21T07:46:53.805Z,2.30
2023-09-21T07:49:21.433Z,1.70
2023-09-21T07:51:48.793Z,1.67
2023-09-21T07:54:16.400Z,1.42
2023-09-21T07:56:43.754Z,2.20
2023-09-21T07:59:11.877Z,2.00
2023-09-21T08:01:39.666Z,1.85
2023-09-21T08:04:08.419Z,2.08
2023-09-21T08:06:35.934Z,1.90
2023-09-21T08:09:04.420Z,2.08
2023-09-21T08:11:33.238Z,1.75
2023-09-21T08:14:00.859Z,1.77
2023-09-21T08:16:30.642Z,1.80
2023-09-21T08:18:59.530Z,1.67
2023-09-21T08:21:26.907Z,1.63
2023-09-21T08:23:54.614Z,1.75
2023-09-21T08:26:21.952Z,1.67
2023-09-21T08:28:49.248Z,1.60
2023-09-21T08:31:16.616Z,1.70
2023-09-21T08:33:44.077Z,1.60
2023-09-21T08:36:11.488Z,1.73
2023-09-21T08:38:39.582Z,1.70
2023-09-21T08:41:07.562Z,1.60
2023-09-21T08:43:36.263Z,1.63
2023-09-21T08:46:04.615Z,1.65
2023-09-21T08:48:33.543Z,1.45
2023-09-21T08:51:02.637Z,1.60
2023-09-21T08:53:30.202Z,1.50
2023-09-21T08:55:59.906Z,2.05
2023-09-21T08:58:34.412Z,1.73
2023-09-21T09:01:02.816Z,1.75
2023-09-21T09:06:00.017Z,1.60
2023-09-21T09:08:29.357Z,2.45
2023-09-21T09:13:34.837Z,1.77
2023-09-21T09:16:02.367Z,1.63
2023-09-21T09:18:29.917Z,1.60
2023-09-21T09:20:57.424Z,1.05
2023-09-21T09:23:26.014Z,1.17
2023-09-21T09:25:55.859Z,1.27
2023-09-21T09:28:23.385Z,1.20
2023-09-21T09:30:53.253Z,1.42
2023-09-21T09:33:26.883Z,1.70
2023-09-21T09:35:55.352Z,1.60
2023-09-21T09:38:23.176Z,1.95
2023-09-21T09:40:52.581Z,1.80
2023-09-21T09:43:21.943Z,1.35
2023-09-21T09:45:51.713Z,1.58
2023-09-21T09:48:24.255Z,1.45
2023-09-21T09:50:59.150Z,1.45
2023-09-21T09:53:27.442Z,1.45
2023-09-21T09:55:57.184Z,1.70
2023-09-21T09:58:28.006Z,1.52
2023-09-21T10:00:56.728Z,1.50
2023-09-21T10:03:24.789Z,1.40
2023-09-21T10:05:53.915Z,1.30
2023-09-21T10:08:23.023Z,1.40
2023-09-21T10:10:53.954Z,1.25
2023-09-21T10:13:27.189Z,1.50
2023-09-21T10:16:05.965Z,1.33
2023-09-21T10:18:44.835Z,1.75
2023-09-21T10:21:35.276Z,1.30
2023-09-21T10:24:05.223Z,1.48
2023-09-21T10:26:40.002Z,1.20
2023-09-21T10:29:08.406Z,1.27
2023-09-21T10:31:39.354Z,1.20
2023-09-21T10:34:11.367Z,1.50
2023-09-21T10:36:43.658Z,1.33
2023-09-21T10:39:11.549Z,1.33
2023-09-21T10:41:44.457Z,1.30
2023-09-21T10:44:12.349Z,1.17
2023-09-21T10:46:42.520Z,1.02
2023-09-21T10:49:17.369Z,1.25
2023-09-21T10:51:47.522Z,1.20
2023-09-21T10:54:15.043Z,1.20
2023-09-21T10:56:45.274Z,0.90
2023-09-21T10:59:13.168Z,1.20
2023-09-21T11:01:40.852Z,1.13
2023-09-21T11:04:08.774Z,1.42
2023-09-21T11:06:38.275Z,0.77
2023-09-21T11:09:09.282Z,1.13
2023-09-21T11:11:36.868Z,1.13
2023-09-21T11:14:06.481Z,1.20
2023-09-21T11:16:34.061Z,1.15
2023-09-21T11:19:02.369Z,0.90
2023-09-21T11:21:30.114Z,0.82
2023-09-21T11:23:57.592Z,0.90
2023-09-21T11:26:26.500Z,0.95
2023-09-21T11:29:00.178Z,1.10
2023-09-21T11:31:30.005Z,1.13
2023-09-21T11:34:06.491Z,1.15
2023-09-21T11:36:34.262Z,1.27
2023-09-21T11:39:02.213Z,1.13
2023-09-21T11:41:29.879Z,1.02
2023-09-21T11:43:57.301Z,1.23
2023-09-21T11:46:25.757Z,0.88
2023-09-21T11:48:54.735Z,1.00
2023-09-21T11:51:27.344Z,1.08
2023-09-21T11:53:56.306Z,0.82
2023-09-21T11:56:23.717Z,1.13
2023-09-21T11:58:51.206Z,1.17
2023-09-21T12:01:21.698Z,1.00
2023-09-21T12:03:53.206Z,1.35
2023-09-21T12:06:20.717Z,0.95
2023-09-21T12:08:49.134Z,0.93
2023-09-21T12:11:16.458Z,1.00
2023-09-21T12:16:11.199Z,1.27
2023-09-21T12:18:38.752Z,0.90
2023-09-21T12:21:06.621Z,1.05
2023-09-21T12:23:36.144Z,1.15
2023-09-21T12:26:03.673Z,0.98
2023-09-21T12:28:31.075Z,1.00
2023-09-21T12:30:58.587Z,1.10
2023-09-21T12:33:41.949Z,0.90
2023-09-21T12:36:14.342Z,1.00
2023-09-21T12:38:44.642Z,0.93
2023-09-21T12:41:12.143Z,1.08
2023-09-21T12:43:39.554Z,1.92
2023-09-21T12:46:09.501Z,1.00
2023-09-21T12:48:37.598Z,1.23
2023-09-21T12:53:32.957Z,1.02
2023-09-21T12:56:00.348Z,1.00
2023-09-21T13:00:58.325Z,1.10
2023-09-21T13:03:25.902Z,1.13
2023-09-21T13:05:53.340Z,1.08
2023-09-21T13:08:21.217Z,0.98
2023-09-21T13:10:48.588Z,1.10
2023-09-21T13:13:16.464Z,0.93
2023-09-21T13:15:43.895Z,1.50
2023-09-21T13:18:12.126Z,1.30
2023-09-21T13:20:40.065Z,0.95
2023-09-21T13:23:08.066Z,1.15
2023-09-21T13:25:38.577Z,1.10
2023-09-21T13:28:06.042Z,0.80
2023-09-21T13:30:34.039Z,0.98
2023-09-21T13:33:02.651Z,0.82
2023-09-21T13:35:31.693Z,1.20
2023-09-21T13:37:59.441Z,1.10
2023-09-21T13:40:27.159Z,0.63
2023-09-21T13:42:54.616Z,0.98
2023-09-21T13:45:22.050Z,0.90
2023-09-21T13:47:50.238Z,0.80
2023-09-21T13:50:19.204Z,0.80
2023-09-21T13:52:46.527Z,0.82
2023-09-21T13:55:18.332Z,0.77
2023-09-21T13:57:47.917Z,1.10
2023-09-21T14:00:15.879Z,0.73
2023-09-21T14:02:50.013Z,0.90
2023-09-21T14:05:23.252Z,0.98
2023-09-21T14:07:54.094Z,0.88
2023-09-21T14:10:21.679Z,1.00
2023-09-21T14:12:51.296Z,0.80
2023-09-21T14:15:19.021Z,0.63
2023-09-21T14:17:46.577Z,0.88
2023-09-21T14:20:14.990Z,0.68
2023-09-21T14:22:42.329Z,0.60
2023-09-21T14:25:10.028Z,1.13
2023-09-21T14:27:38.060Z,0.88
2023-09-21T14:30:06.291Z,0.90
2023-09-21T14:35:04.985Z,1.00
2023-09-21T14:37:32.486Z,0.90
2023-09-21T14:40:01.382Z,0.80
2023-09-21T14:42:29.620Z,1.00
2023-09-21T14:44:57.463Z,0.80
2023-09-21T14:47:28.036Z,1.02
2023-09-21T14:49:56.250Z,0.70
2023-09-21T14:52:25.465Z,0.70
2023-09-21T14:54:54.105Z,0.80
2023-09-21T14:57:22.462Z,0.95
2023-09-21T14:59:50.416Z,0.50
2023-09-21T15:02:18.519Z,0.73
2023-09-21T15:04:45.953Z,1.00
2023-09-21T15:07:14.056Z,0.80
2023-09-21T15:09:41.739Z,0.90
2023-09-21T15:12:09.462Z,0.93
2023-09-21T15:14:36.980Z,1.20
2023-09-21T15:17:05.338Z,0.80
2023-09-21T15:19:33.452Z,0.95
2023-09-21T15:22:01.123Z,1.05
2023-09-21T15:24:30.272Z,0.75
2023-09-21T15:26:59.769Z,1.00
2023-09-21T15:29:29.623Z,0.93
2023-09-21T15:31:57.491Z,0.63
2023-09-21T15:34:24.933Z,0.93
2023-09-21T15:36:52.985Z,0.80
2023-09-21T15:41:49.211Z,1.13
2023-09-21T15:44:16.947Z,0.85
2023-09-21T15:46:44.394Z,0.80
2023-09-21T15:49:12.289Z,0.90
2023-09-21T15:51:40.761Z,0.95
2023-09-21T15:56:35.951Z,0.77
2023-09-21T15:59:03.661Z,0.70
2023-09-21T16:01:31.522Z,0.90
2023-09-21T16:04:05.704Z,1.10
2023-09-21T16:06:34.451Z,1.08
2023-09-21T16:09:05.305Z,0.85
2023-09-21T16:11:37.039Z,0.80
2023-09-21T16:14:07.556Z,1.00
2023-09-21T16:16:35.360Z,0.70
2023-09-21T16:19:03.045Z,0.82
2023-09-21T16:21:33.672Z,0.80
2023-09-21T16:24:03.487Z,0.60
2023-09-21T16:26:31.117Z,0.80
2023-09-21T16:28:59.088Z,0.80
2023-09-21T16:31:27.420Z,0.80
2023-09-21T16:33:55.483Z,1.08
2023-09-21T16:36:23.519Z,0.80
2023-09-21T16:38:51.441Z,0.90
2023-09-21T16:41:19.501Z,1.05
2023-09-21T16:43:47.655Z,1.08
2023-09-21T16:46:39.601Z,0.95
2023-09-21T16:49:03.871Z,0.95
2023-09-21T16:51:31.601Z,0.80
2023-09-21T16:54:02.224Z,0.75
2023-09-21T16:56:31.980Z,1.05
2023-09-21T16:59:00.585Z,1.20
2023-09-21T17:01:28.470Z,0.95
2023-09-21T17:03:56.694Z,0.77
2023-09-21T17:08:51.789Z,0.82
2023-09-21T17:11:19.541Z,1.08
2023-09-21T17:13:47.736Z,0.82
2023-09-21T17:16:15.549Z,0.82
2023-09-21T17:18:43.255Z,1.00
2023-09-21T17:21:10.910Z,0.80
2023-09-21T17:23:38.819Z,0.80
2023-09-21T17:26:06.137Z,1.00
2023-09-21T17:28:34.114Z,1.20
2023-09-21T17:31:05.127Z,1.20
2023-09-21T17:33:34.334Z,1.00
2023-09-21T17:36:02.731Z,1.10
2023-09-21T17:38:31.142Z,1.30
2023-09-21T17:40:59.070Z,1.30
2023-09-21T17:43:27.020Z,1.15
2023-09-21T17:45:54.533Z,0.90
2023-09-21T17:48:29.414Z,0.98
2023-09-21T17:53:29.637Z,0.90
2023-09-21T17:55:57.810Z,0.90
2023-09-21T17:58:25.876Z,1.23
2023-09-21T18:00:53.840Z,1.60
2023-09-21T18:03:22.887Z,0.93
2023-09-21T18:05:50.597Z,1.05
2023-09-21T18:08:18.472Z,1.27
2023-09-21T18:10:46.046Z,1.20
2023-09-21T18:13:14.037Z,1.10
2023-09-21T18:15:41.424Z,1.13
2023-09-21T18:18:09.121Z,1.00
2023-09-21T18:20:36.578Z,1.05
2023-09-21T18:23:05.075Z,1.05
2023-09-21T18:25:33.097Z,1.25
2023-09-21T18:28:00.545Z,1.08
2023-09-21T18:30:28.584Z,1.00
2023-09-21T18:32:56.150Z,1.25
2023-09-21T18:35:23.633Z,1.08
2023-09-21T18:37:51.204Z,1.40
2023-09-21T18:40:18.680Z,1.10
2023-09-21T18:42:46.200Z,1.17
2023-09-21T18:45:13.725Z,1.10
2023-09-21T18:47:41.114Z,1.23
2023-09-21T18:50:09.045Z,1.63
2023-09-21T18:52:37.360Z,1.80
2023-09-21T18:55:06.654Z,1.65
2023-09-21T18:57:35.137Z,1.88
2023-09-21T19:00:02.535Z,1.65
2023-09-21T19:02:29.998Z,2.05
2023-09-21T19:04:58.132Z,1.80
2023-09-21T19:07:25.443Z,2.10
2023-09-21T19:09:54.582Z,2.00
2023-09-21T19:12:21.975Z,2.35
2023-09-21T19:14:49.370Z,2.30
2023-09-21T19:17:17.367Z,2.50
2023-09-21T19:19:44.855Z,2.40
2023-09-21T19:22:12.136Z,2.67
2023-09-21T19:24:39.549Z,2.33
2023-09-21T19:27:07.245Z,2.88
2023-09-21T19:29:35.856Z,3.15
2023-09-21T19:32:03.254Z,2.70
2023-09-21T19:34:30.768Z,2.70
2023-09-21T19:36:58.288Z,2.80
2023-09-21T19:39:26.283Z,2.53
2023-09-21T19:41:53.874Z,2.90
2023-09-21T19:44:21.244Z,2.90
2023-09-21T19:46:48.681Z,2.40
2023-09-21T19:49:16.036Z,2.67
2023-09-21T19:51:44.265Z,2.67
2023-09-21T19:54:11.637Z,2.78
2023-09-21T19:56:40.097Z,3.28
2023-09-21T19:59:07.454Z,3.30
2023-09-21T20:01:34.788Z,2.63
2023-09-21T20:04:03.536Z,3.22
2023-09-21T20:06:31.200Z,2.97
2023-09-21T20:08:58.582Z,3.20
2023-09-21T20:11:26.263Z,2.63
2023-09-21T20:13:55.685Z,3.30
2023-09-21T20:16:24.860Z,3.15
2023-09-21T20:18:52.217Z,2.78
2023-09-21T20:21:19.625Z,3.30
2023-09-21T20:23:46.979Z,3.17
2023-09-21T20:26:14.295Z,3.65
2023-09-21T20:28:41.591Z,3.30
2023-09-21T20:31:08.952Z,3.47
2023-09-21T20:33:36.472Z,3.80
2023-09-21T20:36:04.017Z,3.33
2023-09-21T20:38:31.268Z,2.95
2023-09-21T20:40:58.899Z,4.20
2023-09-21T20:43:26.245Z,3.83
2023-09-21T20:45:55.287Z,3.80
2023-09-21T20:48:22.765Z,3.53
2023-09-21T20:50:51.020Z,3.60
2023-09-21T20:53:18.629Z,3.75
2023-09-21T20:55:47.472Z,4.13
2023-09-21T20:58:14.731Z,3.85
2023-09-21T21:00:42.040Z,3.13
2023-09-21T21:03:10.830Z,3.70
2023-09-21T21:05:38.250Z,4.10
2023-09-21T21:08:05.835Z,5.00
2023-09-21T21:10:33.247Z,4.28
2023-09-21T21:13:00.555Z,3.95
2023-09-21T21:15:28.503Z,4.07
2023-09-21T21:17:55.994Z,4.28
2023-09-21T21:20:23.415Z,4.38
2023-09-21T21:22:50.984Z,4.07
2023-09-21T21:25:18.393Z,4.35
2023-09-21T21:27:46.129Z,4.22
2023-09-21T21:30:13.714Z,3.95
2023-09-21T21:32:41.158Z,4.47
2023-09-21T21:35:15.997Z,4.28
2023-09-21T21:37:44.682Z,4.07
2023-09-21T21:40:13.628Z,3.95
2023-09-21T21:42:41.681Z,4.63
2023-09-21T21:45:09.592Z,4.15
2023-09-21T21:47:37.038Z,3.85
2023-09-21T21:50:04.969Z,4.03
2023-09-21T21:52:32.779Z,3.97
2023-09-21T21:55:00.184Z,3.97
2023-09-21T21:57:28.352Z,4.57
2023-09-21T21:59:55.702Z,3.90
2023-09-21T22:02:23.091Z,4.35
2023-09-21T22:04:52.535Z,4.60
2023-09-21T22:07:22.057Z,3.88
2023-09-21T22:09:50.602Z,4.30
2023-09-21T22:12:19.509Z,4.35
2023-09-21T22:14:46.896Z,4.50
2023-09-21T22:17:14.333Z,4.80
2023-09-21T22:19:43.138Z,5.32
2023-09-21T22:22:10.483Z,4.03
2023-09-21T22:24:37.827Z,4.20
2023-09-21T22:27:05.126Z,4.30
2023-09-21T22:29:32.436Z,4.07
2023-09-21T22:31:59.729Z,4.57
2023-09-21T22:34:27.066Z,5.05
2023-09-21T22:36:54.592Z,4.50
2023-09-21T22:39:21.951Z,4.63
2023-09-21T22:41:49.290Z,4.68
2023-09-21T22:44:16.747Z,4.68
2023-09-21T22:46:47.099Z,4.50
2023-09-21T22:49:16.221Z,4.15
2023-09-21T22:51:43.600Z,2.53
2023-09-21T22:54:11.931Z,2.20
2023-09-21T22:56:39.189Z,2.58
2023-09-21T22:59:06.495Z,2.25
2023-09-21T23:01:35.942Z,3.00
2023-09-21T23:04:03.439Z,2.33
2023-09-21T23:06:30.900Z,2.75
2023-09-21T23:08:59.352Z,1.77
2023-09-21T23:11:27.308Z,1.08
2023-09-21T23:13:56.617Z,0.93
2023-09-21T23:16:25.363Z,1.02
2023-09-21T23:18:53.368Z,0.73
2023-09-21T23:21:21.698Z,0.68
2023-09-21T23:23:49.233Z,0.70
2023-09-21T23:26:19.659Z,0.90
2023-09-21T23:28:47.205Z,0.60
2023-09-21T23:31:15.022Z,0.90
2023-09-21T23:33:45.045Z,0.88
2023-09-21T23:36:14.904Z,0.88
2023-09-21T23:38:42.842Z,0.93
2023-09-21T23:41:10.641Z,0.70
2023-09-21T23:43:41.090Z,1.02
2023-09-21T23:46:12.046Z,0.82
2023-09-21T23:48:43.350Z,0.80
2023-09-21T23:51:11.970Z,0.88
2023-09-21T23:53:39.258Z,1.00
2023-09-21T23:56:08.229Z,0.98
2023-09-21T23:58:35.533Z,1.08
